Seattle, WA

9:49 PM PDT on May 22, 2015 (GMT -0700)
Herrera, Inc. | | Change Station
CLOSE
Current Station
Personal Weather Station
Location: Seattle, WA
Elevation: 121 ft
Nearby Weather Stations

Elev 121 ft 47.62 °N, 122.34 °W | Updated 49 seconds ago

Overcast
Overcast
55.5 °F
Feels Like 55.5 °F
N
3.0
Wind Variable Wind from South
Gusts 10.0 mph

Today
High -- | Low -- °F
--% Chance of Precip.
Yesterday
High -- | Low -- °F
Precip. -- in
5:24 AM 8:48 PM
Waxing Crescent, 26% visible
Pressure 30.04 in
Visibility 10.0 miles
Clouds Overcast 2300 ft
Dew Point 51 °F
Humidity 84%
Rainfall 0.00 in
Snow Depth Not available.
UV 0 out of 12
Pollen 6.80 out of 12
Air Quality Not available.
Flu Activity Sporadic
METAR KBFI 230353Z AUTO 19005KT 10SM OVC023 15/09 A3003 RMK AO2 SLP170 T01500094 TSNO

More Conditions Fewer Conditions

Pressure 30.04 in
Visibility 10.0 miles
Clouds Overcast 2300 ft
Dew Point 51 °F
Humidity 84%
Rainfall 0.00 in
Snow Depth Not available.
UV 0 out of 12
Pollen 6.80 out of 12
Air Quality Not available.
Flu Activity Sporadic
METAR KBFI 230353Z AUTO 19005KT 10SM OVC023 15/09 A3003 RMK AO2 SLP170 T01500094 TSNO

More Conditions Fewer Conditions

10-Day Weather Forecast

Almanac

Astronomy

May. 22, 2015 Rise Set
Actual Time
Civil Twilight
Nautical Twilight
Astronomical Twilight
Moon
Length of Visible Light
Length of Day
Tomorrow will be .
, % of the Moon is Illuminated

Today's Extremes

State Highs State Lows

Community

WunderPhotos

Upload Photos

1,823,387 photos uploaded!

WunderBlogs® & News

Nearby

Air Quality

  Air Quality AQ Index Pollutant
Not available.

Snow Depth

Station Depth Elevation

Earthquake Activity

City Distance Mag. Time & Date
Minimum magnitude displayed is 2.5.

Coastal Water Temperatures

Place Temperature

Stations

Nearby Weather Stations

Station Location Temp. Windchill Dew Point Humidity Wind Precip. Elev Updated Type